Airfield :
LOGIN :

Register | Disclaimer

   EN    FR    IT 

 










Legend :    VFR   Marginal VFR   IFR   Intensive IFR   Very Intensive IFR
Visi :
Ceiling :
>= 8 km
>= 3000ft
5 to 8 km
1000 to 3000 ft
1500m to 5 km
500 to 1000 ft
800 to 1500m
200 to 500 ft
< 800m
< 200 ft
Symbols :   Thunderstorms  Fog  Heavy snow  Heavy precipitations  Wind > 20 kt
SIGMETs :     Misc.  Thunderstorms  Icing  Turbulence  Mountain Waves  Volcanic Ashes







- Airport Elevation : 1017 ft
- Download approach charts


LFSL - Brive Souillac

CURRENT METAR :
  • 220400Z AUTO 28006KT 240V320 9999 OVC008 10/10 Q1023 TEMPO 3000 OVC003

EXPIRED METARs :
  • 220330Z AUTO 26005KT 220V290 4300 -DZ BR BKN005 BKN009 OVC013 10/10 Q1023 NOSIG
  • 220300Z AUTO 27005KT 220V310 5000 -DZ BR BKN005 OVC009 10/10 Q1023 NOSIG
  • 220230Z AUTO 26008KT 220V290 9000 -DZ OVC006 10/10 Q1023 TEMPO 3000 OVC003
  • 220200Z AUTO 25008KT 220V280 4100 -DZ BR OVC006 10/10 Q1023
  • 220130Z AUTO 26006KT 210V300 9000 OVC007 10/10 Q1023

TAF TAF LFSL
Valid from the 22 at 03:00 until the 22 at 12:00 UTC


220200Z 2203/2212 26006KT 6000 -DZ OVC006
TEMPO 2203/2212 3000 OVC003
No reported NOTAMs for that airfield.
1 SIGMET reported for the Bordeaux FIR (LFBB) :
 
Severe turbulence
LFBB SIGMET 1 VALID 220400/220700 LFPW
LFBB BORDEAUX FIR/UIR SEV TURB FCST WI N4545 E00300 - N4215 E00230 - N4230 E00130 - N4545 E00215 - N4545 E00300 SFC/FL080 STNR NC=



MET'MAP, your aeronautical weather chart ! - Copyright ORBIFLY December 2007 - Disclaimer

ORBIFLY MET'MAP TEAM :

Programming & Development : Alexandra Zaïnal
Concept & Development : Baudouin d'Aumeries
Co-Development & Prog : Marc-Olivier Méhu
Technical & hardware support : Manuel Goepfert

Contact : metmap@orbifly.com




SOURCES & CREDITS :

   NOAA